sensor_id;sensor_type;location;lat;lon;timestamp;temperature;humidity
18690;DHT22;9782;52.930;15.562;2023-07-30T00:02:19;18.10;99.90
18690;DHT22;9782;52.930;15.562;2023-07-30T00:05:00;18.00;99.90
18690;DHT22;9782;52.930;15.562;2023-07-30T00:07:45;18.00;99.90
18690;DHT22;9782;52.930;15.562;2023-07-30T00:10:38;18.00;99.90
18690;DHT22;9782;52.930;15.562;2023-07-30T00:13:35;17.90;99.90
18690;DHT22;9782;52.930;15.562;2023-07-30T00:16:09;17.90;99.90
18690;DHT22;9782;52.930;15.562;2023-07-30T00:18:59;17.80;99.90
18690;DHT22;9782;52.930;15.562;2023-07-30T00:22:12;17.80;99.90
18690;DHT22;9782;52.930;15.562;2023-07-30T00:24:56;17.80;99.90
18690;DHT22;9782;52.930;15.562;2023-07-30T00:27:23;17.70;99.90
18690;DHT22;9782;52.930;15.562;2023-07-30T00:30:16;17.70;99.90
18690;DHT22;9782;52.930;15.562;2023-07-30T00:32:49;17.70;99.90
18690;DHT22;9782;52.930;15.562;2023-07-30T00:35:26;17.70;99.90
18690;DHT22;9782;52.930;15.562;2023-07-30T00:37:52;17.80;99.90
18690;DHT22;9782;52.930;15.562;2023-07-30T00:46:45;17.80;99.90
18690;DHT22;9782;52.930;15.562;2023-07-30T00:49:17;17.70;99.90
18690;DHT22;9782;52.930;15.562;2023-07-30T00:51:45;17.70;99.90
18690;DHT22;9782;52.930;15.562;2023-07-30T00:54:12;17.70;99.90
18690;DHT22;9782;52.930;15.562;2023-07-30T00:56:45;17.70;99.90
18690;DHT22;9782;52.930;15.562;2023-07-30T00:59:14;17.60;99.90
18690;DHT22;9782;52.930;15.562;2023-07-30T01:01:42;17.60;99.90
18690;DHT22;9782;52.930;15.562;2023-07-30T01:04:09;17.50;99.90
18690;DHT22;9782;52.930;15.562;2023-07-30T01:06:36;17.50;99.90
18690;DHT22;9782;52.930;15.562;2023-07-30T01:09:04;17.50;99.90
18690;DHT22;9782;52.930;15.562;2023-07-30T01:11:31;17.40;99.90
18690;DHT22;9782;52.930;15.562;2023-07-30T01:13:59;17.40;99.90
18690;DHT22;9782;52.930;15.562;2023-07-30T01:16:26;17.40;99.90
18690;DHT22;9782;52.930;15.562;2023-07-30T01:18:53;17.30;99.90
18690;DHT22;9782;52.930;15.562;2023-07-30T01:21:21;17.30;99.90
18690;DHT22;9782;52.930;15.562;2023-07-30T01:23:48;17.30;99.90
18690;DHT22;9782;52.930;15.562;2023-07-30T01:26:21;17.10;99.90
18690;DHT22;9782;52.930;15.562;2023-07-30T01:28:51;17.10;99.90
18690;DHT22;9782;52.930;15.562;2023-07-30T01:31:21;17.10;99.90
18690;DHT22;9782;52.930;15.562;2023-07-30T01:33:52;17.10;99.90
18690;DHT22;9782;52.930;15.562;2023-07-30T01:36:22;17.10;99.90
18690;DHT22;9782;52.930;15.562;2023-07-30T01:38:50;17.10;99.90
18690;DHT22;9782;52.930;15.562;2023-07-30T01:41:17;17.00;99.90
18690;DHT22;9782;52.930;15.562;2023-07-30T01:43:44;17.00;99.90
18690;DHT22;9782;52.930;15.562;2023-07-30T01:46:11;17.00;99.90
18690;DHT22;9782;52.930;15.562;2023-07-30T01:48:38;16.90;99.90
18690;DHT22;9782;52.930;15.562;2023-07-30T01:51:05;16.90;99.90
18690;DHT22;9782;52.930;15.562;2023-07-30T01:53:33;16.90;99.90
18690;DHT22;9782;52.930;15.562;2023-07-30T01:56:00;16.80;99.90
18690;DHT22;9782;52.930;15.562;2023-07-30T01:58:27;16.90;99.90
18690;DHT22;9782;52.930;15.562;2023-07-30T02:00:54;16.90;99.90
18690;DHT22;9782;52.930;15.562;2023-07-30T02:03:20;16.80;99.90
18690;DHT22;9782;52.930;15.562;2023-07-30T02:05:47;16.80;99.90
18690;DHT22;9782;52.930;15.562;2023-07-30T02:08:14;16.80;99.90
18690;DHT22;9782;52.930;15.562;2023-07-30T02:10:42;16.80;99.90
18690;DHT22;9782;52.930;15.562;2023-07-30T02:13:09;16.70;99.90
18690;DHT22;9782;52.930;15.562;2023-07-30T02:15:40;16.70;99.90
18690;DHT22;9782;52.930;15.562;2023-07-30T02:18:07;16.70;99.90
18690;DHT22;9782;52.930;15.562;2023-07-30T02:20:35;16.60;99.90
18690;DHT22;9782;52.930;15.562;2023-07-30T02:23:02;16.60;99.90
18690;DHT22;9782;52.930;15.562;2023-07-30T02:25:29;16.60;99.90
18690;DHT22;9782;52.930;15.562;2023-07-30T02:27:59;16.60;99.90
18690;DHT22;9782;52.930;15.562;2023-07-30T02:30:26;16.50;99.90
18690;DHT22;9782;52.930;15.562;2023-07-30T02:32:53;16.50;99.90
18690;DHT22;9782;52.930;15.562;2023-07-30T02:35:20;16.50;99.90
18690;DHT22;9782;52.930;15.562;2023-07-30T02:37:47;16.50;99.90
18690;DHT22;9782;52.930;15.562;2023-07-30T02:40:14;16.40;99.90
18690;DHT22;9782;52.930;15.562;2023-07-30T02:42:41;16.40;99.90
18690;DHT22;9782;52.930;15.562;2023-07-30T02:45:09;16.40;99.90
18690;DHT22;9782;52.930;15.562;2023-07-30T02:47:36;16.40;99.90
18690;DHT22;9782;52.930;15.562;2023-07-30T02:50:04;16.40;99.90
18690;DHT22;9782;52.930;15.562;2023-07-30T02:52:32;16.40;99.90
18690;DHT22;9782;52.930;15.562;2023-07-30T02:54:59;16.30;99.90
18690;DHT22;9782;52.930;15.562;2023-07-30T02:57:26;16.30;99.90
18690;DHT22;9782;52.930;15.562;2023-07-30T02:59:53;16.30;99.90
18690;DHT22;9782;52.930;15.562;2023-07-30T03:02:21;16.30;99.90
18690;DHT22;9782;52.930;15.562;2023-07-30T03:04:48;16.20;99.90
18690;DHT22;9782;52.930;15.562;2023-07-30T03:07:15;16.30;99.90
18690;DHT22;9782;52.930;15.562;2023-07-30T03:09:41;16.20;99.90
18690;DHT22;9782;52.930;15.562;2023-07-30T03:12:08;16.20;99.90
18690;DHT22;9782;52.930;15.562;2023-07-30T03:14:35;16.20;99.90
18690;DHT22;9782;52.930;15.562;2023-07-30T03:17:02;16.20;99.90
18690;DHT22;9782;52.930;15.562;2023-07-30T03:19:31;16.20;99.90
18690;DHT22;9782;52.930;15.562;2023-07-30T03:21:58;16.20;99.90
18690;DHT22;9782;52.930;15.562;2023-07-30T03:24:25;16.20;99.90
18690;DHT22;9782;52.930;15.562;2023-07-30T03:26:52;16.20;99.90
18690;DHT22;9782;52.930;15.562;2023-07-30T03:29:19;16.10;99.90
18690;DHT22;9782;52.930;15.562;2023-07-30T03:31:46;16.20;99.90
18690;DHT22;9782;52.930;15.562;2023-07-30T03:34:12;16.20;99.90
18690;DHT22;9782;52.930;15.562;2023-07-30T03:36:41;16.20;99.90
18690;DHT22;9782;52.930;15.562;2023-07-30T03:39:08;16.20;99.90
18690;DHT22;9782;52.930;15.562;2023-07-30T03:41:34;16.20;99.90
18690;DHT22;9782;52.930;15.562;2023-07-30T03:44:01;16.30;99.90
18690;DHT22;9782;52.930;15.562;2023-07-30T03:46:28;16.30;99.90
18690;DHT22;9782;52.930;15.562;2023-07-30T03:48:55;16.40;99.90
18690;DHT22;9782;52.930;15.562;2023-07-30T03:51:22;16.40;99.90
18690;DHT22;9782;52.930;15.562;2023-07-30T03:53:50;16.40;99.90
18690;DHT22;9782;52.930;15.562;2023-07-30T03:56:17;16.50;99.90
18690;DHT22;9782;52.930;15.562;2023-07-30T03:58:44;16.70;99.90
18690;DHT22;9782;52.930;15.562;2023-07-30T04:01:11;17.20;99.90
18690;DHT22;9782;52.930;15.562;2023-07-30T04:03:37;17.70;99.90
18690;DHT22;9782;52.930;15.562;2023-07-30T04:06:04;18.00;99.90
18690;DHT22;9782;52.930;15.562;2023-07-30T04:08:31;18.40;99.90
18690;DHT22;9782;52.930;15.562;2023-07-30T04:10:59;18.90;99.90
18690;DHT22;9782;52.930;15.562;2023-07-30T04:13:26;19.20;99.90
18690;DHT22;9782;52.930;15.562;2023-07-30T04:15:53;19.60;99.90
18690;DHT22;9782;52.930;15.562;2023-07-30T04:18:20;19.90;48.30
18690;DHT22;9782;52.930;15.562;2023-07-30T04:20:48;20.30;1.00
18690;DHT22;9782;52.930;15.562;2023-07-30T04:23:15;20.60;1.00
18690;DHT22;9782;52.930;15.562;2023-07-30T04:25:42;21.00;1.00
18690;DHT22;9782;52.930;15.562;2023-07-30T04:28:10;21.30;1.00
18690;DHT22;9782;52.930;15.562;2023-07-30T04:30:37;21.70;1.00
18690;DHT22;9782;52.930;15.562;2023-07-30T04:33:04;22.00;1.00
18690;DHT22;9782;52.930;15.562;2023-07-30T04:35:31;22.20;1.00
18690;DHT22;9782;52.930;15.562;2023-07-30T04:37:58;22.40;1.00
18690;DHT22;9782;52.930;15.562;2023-07-30T04:40:25;22.60;1.00
18690;DHT22;9782;52.930;15.562;2023-07-30T04:42:51;22.70;1.00
18690;DHT22;9782;52.930;15.562;2023-07-30T04:45:20;22.90;1.00
18690;DHT22;9782;52.930;15.562;2023-07-30T04:47:46;22.90;1.00
18690;DHT22;9782;52.930;15.562;2023-07-30T04:50:13;23.00;1.00
18690;DHT22;9782;52.930;15.562;2023-07-30T04:52:40;23.00;1.00
18690;DHT22;9782;52.930;15.562;2023-07-30T04:55:07;22.90;1.00
18690;DHT22;9782;52.930;15.562;2023-07-30T04:57:34;22.70;99.90
18690;DHT22;9782;52.930;15.562;2023-07-30T05:00:01;22.50;1.00
18690;DHT22;9782;52.930;15.562;2023-07-30T05:02:30;22.50;99.90
18690;DHT22;9782;52.930;15.562;2023-07-30T05:04:57;22.30;1.00
18690;DHT22;9782;52.930;15.562;2023-07-30T05:07:23;22.10;1.00
18690;DHT22;9782;52.930;15.562;2023-07-30T05:09:50;22.00;1.00
18690;DHT22;9782;52.930;15.562;2023-07-30T05:12:17;21.70;1.00
18690;DHT22;9782;52.930;15.562;2023-07-30T05:14:44;21.50;1.00
18690;DHT22;9782;52.930;15.562;2023-07-30T05:17:11;21.20;1.00
18690;DHT22;9782;52.930;15.562;2023-07-30T05:19:39;21.00;99.90
18690;DHT22;9782;52.930;15.562;2023-07-30T05:22:06;20.80;1.00
18690;DHT22;9782;52.930;15.562;2023-07-30T05:24:33;20.70;40.20
18690;DHT22;9782;52.930;15.562;2023-07-30T05:27:02;20.60;99.90
18690;DHT22;9782;52.930;15.562;2023-07-30T05:29:29;20.60;99.90
18690;DHT22;9782;52.930;15.562;2023-07-30T05:31:56;20.50;99.90
18690;DHT22;9782;52.930;15.562;2023-07-30T05:34:23;20.40;1.00
18690;DHT22;9782;52.930;15.562;2023-07-30T05:36:51;20.30;1.00
18690;DHT22;9782;52.930;15.562;2023-07-30T05:39:18;20.30;1.00
18690;DHT22;9782;52.930;15.562;2023-07-30T05:41:45;20.30;1.00
18690;DHT22;9782;52.930;15.562;2023-07-30T05:44:12;20.30;1.00
18690;DHT22;9782;52.930;15.562;2023-07-30T05:46:39;20.30;34.40
18690;DHT22;9782;52.930;15.562;2023-07-30T05:49:06;20.30;99.90
18690;DHT22;9782;52.930;15.562;2023-07-30T05:51:32;20.30;99.90
18690;DHT22;9782;52.930;15.562;2023-07-30T05:54:01;20.30;99.90
18690;DHT22;9782;52.930;15.562;2023-07-30T05:56:28;20.30;99.90
18690;DHT22;9782;52.930;15.562;2023-07-30T05:58:54;20.30;99.90
18690;DHT22;9782;52.930;15.562;2023-07-30T06:01:21;20.30;99.90
18690;DHT22;9782;52.930;15.562;2023-07-30T06:03:48;20.30;99.90
18690;DHT22;9782;52.930;15.562;2023-07-30T06:06:17;20.30;99.90
18690;DHT22;9782;52.930;15.562;2023-07-30T06:08:45;20.50;99.90
18690;DHT22;9782;52.930;15.562;2023-07-30T06:11:13;20.50;99.90
18690;DHT22;9782;52.930;15.562;2023-07-30T06:13:40;20.60;99.90
18690;DHT22;9782;52.930;15.562;2023-07-30T06:16:07;20.80;99.90
18690;DHT22;9782;52.930;15.562;2023-07-30T06:18:33;21.20;99.90
18690;DHT22;9782;52.930;15.562;2023-07-30T06:21:00;21.60;84.80
18690;DHT22;9782;52.930;15.562;2023-07-30T06:23:27;22.10;1.00
18690;DHT22;9782;52.930;15.562;2023-07-30T06:25:54;22.40;1.00
18690;DHT22;9782;52.930;15.562;2023-07-30T06:28:22;22.60;1.00
18690;DHT22;9782;52.930;15.562;2023-07-30T06:30:50;22.60;99.90
18690;DHT22;9782;52.930;15.562;2023-07-30T06:33:17;22.50;50.40
18690;DHT22;9782;52.930;15.562;2023-07-30T06:35:43;22.30;1.00
18690;DHT22;9782;52.930;15.562;2023-07-30T06:38:10;22.00;94.60
18690;DHT22;9782;52.930;15.562;2023-07-30T06:40:37;21.90;1.00
18690;DHT22;9782;52.930;15.562;2023-07-30T06:43:04;21.90;1.00
18690;DHT22;9782;52.930;15.562;2023-07-30T06:45:32;21.90;99.90
18690;DHT22;9782;52.930;15.562;2023-07-30T06:47:59;22.10;99.90
18690;DHT22;9782;52.930;15.562;2023-07-30T06:50:26;22.40;99.90
18690;DHT22;9782;52.930;15.562;2023-07-30T06:52:53;22.50;1.00
18690;DHT22;9782;52.930;15.562;2023-07-30T06:55:19;22.60;1.00
18690;DHT22;9782;52.930;15.562;2023-07-30T06:57:46;22.80;99.90
18690;DHT22;9782;52.930;15.562;2023-07-30T07:00:14;22.90;1.00
18690;DHT22;9782;52.930;15.562;2023-07-30T07:02:48;23.00;1.00
18690;DHT22;9782;52.930;15.562;2023-07-30T07:05:15;22.80;1.00
18690;DHT22;9782;52.930;15.562;2023-07-30T07:07:42;22.80;1.00
18690;DHT22;9782;52.930;15.562;2023-07-30T07:10:09;22.70;1.00
18690;DHT22;9782;52.930;15.562;2023-07-30T07:12:37;22.70;26.60
18690;DHT22;9782;52.930;15.562;2023-07-30T07:15:05;22.70;56.40
18690;DHT22;9782;52.930;15.562;2023-07-30T07:17:32;22.80;67.70
18690;DHT22;9782;52.930;15.562;2023-07-30T07:20:00;22.90;1.00
18690;DHT22;9782;52.930;15.562;2023-07-30T07:22:29;23.00;1.00
18690;DHT22;9782;52.930;15.562;2023-07-30T07:24:56;23.00;1.00
18690;DHT22;9782;52.930;15.562;2023-07-30T07:27:23;23.10;99.90
18690;DHT22;9782;52.930;15.562;2023-07-30T07:29:50;23.10;91.90
18690;DHT22;9782;52.930;15.562;2023-07-30T07:32:17;23.00;99.90
18690;DHT22;9782;52.930;15.562;2023-07-30T07:34:46;23.00;99.90
18690;DHT22;9782;52.930;15.562;2023-07-30T07:37:15;23.00;99.90
18690;DHT22;9782;52.930;15.562;2023-07-30T07:39:46;23.10;99.90
18690;DHT22;9782;52.930;15.562;2023-07-30T07:42:13;23.20;1.00
18690;DHT22;9782;52.930;15.562;2023-07-30T07:44:40;23.20;99.90
18690;DHT22;9782;52.930;15.562;2023-07-30T07:47:09;23.20;99.90
18690;DHT22;9782;52.930;15.562;2023-07-30T07:49:36;23.30;1.00
18690;DHT22;9782;52.930;15.562;2023-07-30T07:52:03;23.30;29.10
18690;DHT22;9782;52.930;15.562;2023-07-30T07:54:31;23.40;99.90
18690;DHT22;9782;52.930;15.562;2023-07-30T07:56:58;23.50;1.00
18690;DHT22;9782;52.930;15.562;2023-07-30T07:59:25;23.60;99.90
18690;DHT22;9782;52.930;15.562;2023-07-30T08:01:53;23.60;1.00
18690;DHT22;9782;52.930;15.562;2023-07-30T08:04:20;23.60;1.00
18690;DHT22;9782;52.930;15.562;2023-07-30T08:06:47;23.50;1.00
18690;DHT22;9782;52.930;15.562;2023-07-30T08:09:14;23.50;1.00
18690;DHT22;9782;52.930;15.562;2023-07-30T08:11:43;23.60;1.00
18690;DHT22;9782;52.930;15.562;2023-07-30T08:14:10;23.80;1.00
18690;DHT22;9782;52.930;15.562;2023-07-30T08:16:36;23.80;99.90
18690;DHT22;9782;52.930;15.562;2023-07-30T08:19:03;23.90;1.00
18690;DHT22;9782;52.930;15.562;2023-07-30T08:21:30;23.90;1.00
18690;DHT22;9782;52.930;15.562;2023-07-30T08:23:57;23.90;1.00
18690;DHT22;9782;52.930;15.562;2023-07-30T08:26:24;23.90;1.00
18690;DHT22;9782;52.930;15.562;2023-07-30T08:28:52;23.90;99.90
18690;DHT22;9782;52.930;15.562;2023-07-30T08:31:19;23.90;1.00
18690;DHT22;9782;52.930;15.562;2023-07-30T08:33:46;24.00;99.90
18690;DHT22;9782;52.930;15.562;2023-07-30T08:36:13;24.10;1.00
18690;DHT22;9782;52.930;15.562;2023-07-30T08:38:40;24.30;99.90
18690;DHT22;9782;52.930;15.562;2023-07-30T08:41:07;24.40;99.90
18690;DHT22;9782;52.930;15.562;2023-07-30T08:43:34;24.60;99.90
18690;DHT22;9782;52.930;15.562;2023-07-30T08:46:03;24.80;99.90
18690;DHT22;9782;52.930;15.562;2023-07-30T08:48:30;24.80;99.90
18690;DHT22;9782;52.930;15.562;2023-07-30T08:50:57;25.10;99.90
18690;DHT22;9782;52.930;15.562;2023-07-30T08:53:24;25.30;94.00
18690;DHT22;9782;52.930;15.562;2023-07-30T08:55:53;25.60;1.00
18690;DHT22;9782;52.930;15.562;2023-07-30T08:58:20;25.80;1.00
18690;DHT22;9782;52.930;15.562;2023-07-30T09:00:49;26.10;1.00
18690;DHT22;9782;52.930;15.562;2023-07-30T09:03:18;26.40;99.90
18690;DHT22;9782;52.930;15.562;2023-07-30T09:05:47;26.60;99.90
18690;DHT22;9782;52.930;15.562;2023-07-30T09:08:14;26.80;99.90
18690;DHT22;9782;52.930;15.562;2023-07-30T09:10:41;26.80;99.90
18690;DHT22;9782;52.930;15.562;2023-07-30T09:13:08;26.80;99.90
18690;DHT22;9782;52.930;15.562;2023-07-30T09:15:36;26.60;99.90
18690;DHT22;9782;52.930;15.562;2023-07-30T09:18:04;26.50;99.90
18690;DHT22;9782;52.930;15.562;2023-07-30T09:20:38;26.50;99.90
18690;DHT22;9782;52.930;15.562;2023-07-30T09:23:05;26.40;14.30
18690;DHT22;9782;52.930;15.562;2023-07-30T09:25:32;26.40;1.00
18690;DHT22;9782;52.930;15.562;2023-07-30T09:27:59;26.30;1.00
18690;DHT22;9782;52.930;15.562;2023-07-30T09:30:27;26.20;12.00
18690;DHT22;9782;52.930;15.562;2023-07-30T09:32:55;26.10;1.00
18690;DHT22;9782;52.930;15.562;2023-07-30T09:35:22;26.10;26.00
18690;DHT22;9782;52.930;15.562;2023-07-30T09:37:58;26.50;14.10
18690;DHT22;9782;52.930;15.562;2023-07-30T09:40:31;26.50;1.00
18690;DHT22;9782;52.930;15.562;2023-07-30T09:43:03;26.50;1.00
18690;DHT22;9782;52.930;15.562;2023-07-30T09:45:33;26.50;1.00
18690;DHT22;9782;52.930;15.562;2023-07-30T09:48:02;26.50;1.00
18690;DHT22;9782;52.930;15.562;2023-07-30T09:50:29;26.50;1.00
18690;DHT22;9782;52.930;15.562;2023-07-30T09:53:01;26.60;1.00
18690;DHT22;9782;52.930;15.562;2023-07-30T09:55:28;27.00;1.00
18690;DHT22;9782;52.930;15.562;2023-07-30T09:57:55;27.40;1.00
18690;DHT22;9782;52.930;15.562;2023-07-30T10:00:22;27.70;1.00
18690;DHT22;9782;52.930;15.562;2023-07-30T10:02:50;27.80;1.00
18690;DHT22;9782;52.930;15.562;2023-07-30T10:05:18;27.90;1.00
18690;DHT22;9782;52.930;15.562;2023-07-30T10:07:50;27.80;1.00
18690;DHT22;9782;52.930;15.562;2023-07-30T10:10:20;27.70;1.00
18690;DHT22;9782;52.930;15.562;2023-07-30T10:12:48;27.60;1.00
18690;DHT22;9782;52.930;15.562;2023-07-30T10:15:19;27.80;1.00
18690;DHT22;9782;52.930;15.562;2023-07-30T10:17:46;28.10;1.00
18690;DHT22;9782;52.930;15.562;2023-07-30T10:20:31;28.40;1.00
18690;DHT22;9782;52.930;15.562;2023-07-30T10:23:00;28.50;1.00
18690;DHT22;9782;52.930;15.562;2023-07-30T10:25:30;28.60;1.00
18690;DHT22;9782;52.930;15.562;2023-07-30T10:27:58;28.60;1.00
18690;DHT22;9782;52.930;15.562;2023-07-30T10:30:30;28.60;99.90
18690;DHT22;9782;52.930;15.562;2023-07-30T10:32:59;28.30;99.90
18690;DHT22;9782;52.930;15.562;2023-07-30T10:35:38;28.10;99.90
18690;DHT22;9782;52.930;15.562;2023-07-30T10:38:15;27.80;99.90
18690;DHT22;9782;52.930;15.562;2023-07-30T10:40:59;27.80;1.00
18690;DHT22;9782;52.930;15.562;2023-07-30T10:43:28;27.90;1.00
18690;DHT22;9782;52.930;15.562;2023-07-30T10:45:55;27.80;99.90
18690;DHT22;9782;52.930;15.562;2023-07-30T10:48:30;27.70;99.90
18690;DHT22;9782;52.930;15.562;2023-07-30T10:50:58;27.80;99.90
18690;DHT22;9782;52.930;15.562;2023-07-30T10:53:24;28.00;99.90
18690;DHT22;9782;52.930;15.562;2023-07-30T10:55:53;28.20;99.90
18690;DHT22;9782;52.930;15.562;2023-07-30T10:58:24;28.50;99.90
18690;DHT22;9782;52.930;15.562;2023-07-30T11:00:51;28.60;99.90
18690;DHT22;9782;52.930;15.562;2023-07-30T11:03:18;28.70;99.90
18690;DHT22;9782;52.930;15.562;2023-07-30T11:05:46;28.80;99.90
18690;DHT22;9782;52.930;15.562;2023-07-30T11:08:14;28.80;99.90
18690;DHT22;9782;52.930;15.562;2023-07-30T11:10:42;28.80;99.90
18690;DHT22;9782;52.930;15.562;2023-07-30T11:13:12;28.80;99.90
18690;DHT22;9782;52.930;15.562;2023-07-30T11:15:42;28.90;99.90
18690;DHT22;9782;52.930;15.562;2023-07-30T11:18:09;29.10;99.90
18690;DHT22;9782;52.930;15.562;2023-07-30T11:20:36;29.10;99.90
18690;DHT22;9782;52.930;15.562;2023-07-30T11:23:17;29.00;99.90
18690;DHT22;9782;52.930;15.562;2023-07-30T11:25:46;28.80;99.90
18690;DHT22;9782;52.930;15.562;2023-07-30T11:31:01;28.20;99.90
18690;DHT22;9782;52.930;15.562;2023-07-30T11:33:29;28.00;99.90
18690;DHT22;9782;52.930;15.562;2023-07-30T11:35:56;28.10;99.90
18690;DHT22;9782;52.930;15.562;2023-07-30T11:38:24;28.20;99.90
18690;DHT22;9782;52.930;15.562;2023-07-30T11:40:51;28.20;99.90
18690;DHT22;9782;52.930;15.562;2023-07-30T11:43:20;28.50;99.90
18690;DHT22;9782;52.930;15.562;2023-07-30T11:45:47;28.80;99.90
18690;DHT22;9782;52.930;15.562;2023-07-30T11:48:14;28.80;99.90
18690;DHT22;9782;52.930;15.562;2023-07-30T11:50:47;28.70;99.90
18690;DHT22;9782;52.930;15.562;2023-07-30T11:53:14;28.60;99.90
18690;DHT22;9782;52.930;15.562;2023-07-30T11:55:43;28.50;99.90
18690;DHT22;9782;52.930;15.562;2023-07-30T11:58:12;28.20;99.90
18690;DHT22;9782;52.930;15.562;2023-07-30T12:00:41;27.90;99.90
18690;DHT22;9782;52.930;15.562;2023-07-30T12:03:13;27.70;99.90
18690;DHT22;9782;52.930;15.562;2023-07-30T12:05:40;27.60;99.90
18690;DHT22;9782;52.930;15.562;2023-07-30T12:08:13;27.50;99.90
18690;DHT22;9782;52.930;15.562;2023-07-30T12:10:44;27.40;99.90
18690;DHT22;9782;52.930;15.562;2023-07-30T12:13:12;27.40;99.90
18690;DHT22;9782;52.930;15.562;2023-07-30T12:15:40;27.40;99.90
18690;DHT22;9782;52.930;15.562;2023-07-30T12:18:09;27.40;99.90
18690;DHT22;9782;52.930;15.562;2023-07-30T12:20:35;27.50;99.90
18690;DHT22;9782;52.930;15.562;2023-07-30T12:23:02;27.50;99.90
18690;DHT22;9782;52.930;15.562;2023-07-30T12:25:29;27.40;99.90
18690;DHT22;9782;52.930;15.562;2023-07-30T12:27:56;27.40;99.90
18690;DHT22;9782;52.930;15.562;2023-07-30T12:30:23;27.50;99.90
18690;DHT22;9782;52.930;15.562;2023-07-30T12:32:53;27.60;99.90
18690;DHT22;9782;52.930;15.562;2023-07-30T12:35:20;27.60;99.90
18690;DHT22;9782;52.930;15.562;2023-07-30T12:37:50;27.80;99.90
18690;DHT22;9782;52.930;15.562;2023-07-30T12:40:18;28.00;99.90
18690;DHT22;9782;52.930;15.562;2023-07-30T12:42:45;28.10;99.90
18690;DHT22;9782;52.930;15.562;2023-07-30T12:45:14;28.10;99.90
18690;DHT22;9782;52.930;15.562;2023-07-30T12:50:09;28.10;99.90
18690;DHT22;9782;52.930;15.562;2023-07-30T12:52:36;28.20;99.90
18690;DHT22;9782;52.930;15.562;2023-07-30T12:55:03;28.40;99.90
18690;DHT22;9782;52.930;15.562;2023-07-30T12:57:30;28.50;99.90
18690;DHT22;9782;52.930;15.562;2023-07-30T12:59:58;28.60;99.90
18690;DHT22;9782;52.930;15.562;2023-07-30T13:02:25;28.70;99.90
18690;DHT22;9782;52.930;15.562;2023-07-30T13:04:52;28.70;99.90
18690;DHT22;9782;52.930;15.562;2023-07-30T13:07:20;28.50;99.90
18690;DHT22;9782;52.930;15.562;2023-07-30T13:09:47;28.60;99.90
18690;DHT22;9782;52.930;15.562;2023-07-30T13:12:14;28.60;99.90
18690;DHT22;9782;52.930;15.562;2023-07-30T13:14:41;28.60;99.90
18690;DHT22;9782;52.930;15.562;2023-07-30T13:17:10;28.50;99.90
18690;DHT22;9782;52.930;15.562;2023-07-30T13:19:37;28.30;99.90
18690;DHT22;9782;52.930;15.562;2023-07-30T13:22:05;28.10;99.90
18690;DHT22;9782;52.930;15.562;2023-07-30T13:24:33;28.20;99.90
18690;DHT22;9782;52.930;15.562;2023-07-30T13:27:02;28.40;99.90
18690;DHT22;9782;52.930;15.562;2023-07-30T13:29:29;28.50;99.90
18690;DHT22;9782;52.930;15.562;2023-07-30T13:31:56;28.50;99.90
18690;DHT22;9782;52.930;15.562;2023-07-30T13:34:28;28.50;99.90
18690;DHT22;9782;52.930;15.562;2023-07-30T13:36:55;28.60;99.90
18690;DHT22;9782;52.930;15.562;2023-07-30T13:39:22;28.80;99.90
18690;DHT22;9782;52.930;15.562;2023-07-30T13:41:51;28.80;99.90
18690;DHT22;9782;52.930;15.562;2023-07-30T13:44:18;28.90;99.90
18690;DHT22;9782;52.930;15.562;2023-07-30T13:46:48;28.80;99.90
18690;DHT22;9782;52.930;15.562;2023-07-30T13:49:15;28.70;99.90
18690;DHT22;9782;52.930;15.562;2023-07-30T13:51:43;28.60;99.90
18690;DHT22;9782;52.930;15.562;2023-07-30T13:54:09;28.60;99.90
18690;DHT22;9782;52.930;15.562;2023-07-30T13:56:37;28.60;99.90
18690;DHT22;9782;52.930;15.562;2023-07-30T13:59:06;28.40;99.90
18690;DHT22;9782;52.930;15.562;2023-07-30T14:01:33;28.10;99.90
18690;DHT22;9782;52.930;15.562;2023-07-30T14:03:59;28.00;99.90
18690;DHT22;9782;52.930;15.562;2023-07-30T14:06:29;28.00;99.90
18690;DHT22;9782;52.930;15.562;2023-07-30T14:08:57;28.10;99.90
18690;DHT22;9782;52.930;15.562;2023-07-30T14:11:25;28.20;99.90
18690;DHT22;9782;52.930;15.562;2023-07-30T14:13:52;28.30;99.90
18690;DHT22;9782;52.930;15.562;2023-07-30T14:16:21;28.30;99.90
18690;DHT22;9782;52.930;15.562;2023-07-30T14:18:48;28.20;99.90
18690;DHT22;9782;52.930;15.562;2023-07-30T14:21:15;28.10;99.90
18690;DHT22;9782;52.930;15.562;2023-07-30T14:23:42;27.80;99.90
18690;DHT22;9782;52.930;15.562;2023-07-30T14:26:09;27.70;99.90
18690;DHT22;9782;52.930;15.562;2023-07-30T14:28:36;27.60;99.90
18690;DHT22;9782;52.930;15.562;2023-07-30T14:31:06;27.60;99.90
18690;DHT22;9782;52.930;15.562;2023-07-30T14:33:34;27.50;99.90
18690;DHT22;9782;52.930;15.562;2023-07-30T14:36:02;27.30;99.90
18690;DHT22;9782;52.930;15.562;2023-07-30T14:38:29;27.20;99.90
18690;DHT22;9782;52.930;15.562;2023-07-30T14:40:59;27.20;99.90
18690;DHT22;9782;52.930;15.562;2023-07-30T14:43:29;27.20;99.90
18690;DHT22;9782;52.930;15.562;2023-07-30T14:45:56;27.30;99.90
18690;DHT22;9782;52.930;15.562;2023-07-30T14:48:23;27.50;99.90
18690;DHT22;9782;52.930;15.562;2023-07-30T14:50:52;27.70;99.90
18690;DHT22;9782;52.930;15.562;2023-07-30T14:53:19;27.90;99.90
18690;DHT22;9782;52.930;15.562;2023-07-30T14:55:46;28.10;99.90
18690;DHT22;9782;52.930;15.562;2023-07-30T14:58:13;28.10;99.90
18690;DHT22;9782;52.930;15.562;2023-07-30T15:00:40;28.20;99.90
18690;DHT22;9782;52.930;15.562;2023-07-30T15:03:09;28.20;99.90
18690;DHT22;9782;52.930;15.562;2023-07-30T15:05:40;28.00;99.90
18690;DHT22;9782;52.930;15.562;2023-07-30T15:08:08;27.70;99.90
18690;DHT22;9782;52.930;15.562;2023-07-30T15:10:36;27.60;99.90
18690;DHT22;9782;52.930;15.562;2023-07-30T15:13:03;27.20;99.90
18690;DHT22;9782;52.930;15.562;2023-07-30T15:15:30;27.10;99.90
18690;DHT22;9782;52.930;15.562;2023-07-30T15:17:57;27.00;99.90
18690;DHT22;9782;52.930;15.562;2023-07-30T15:20:26;27.00;99.90
18690;DHT22;9782;52.930;15.562;2023-07-30T15:22:53;27.10;99.90
18690;DHT22;9782;52.930;15.562;2023-07-30T15:25:22;27.10;99.90
18690;DHT22;9782;52.930;15.562;2023-07-30T15:27:49;27.20;99.90
18690;DHT22;9782;52.930;15.562;2023-07-30T15:30:16;27.30;99.90
18690;DHT22;9782;52.930;15.562;2023-07-30T15:32:44;27.30;99.90
18690;DHT22;9782;52.930;15.562;2023-07-30T15:35:12;27.30;99.90
18690;DHT22;9782;52.930;15.562;2023-07-30T15:37:39;27.20;99.90
18690;DHT22;9782;52.930;15.562;2023-07-30T15:40:07;27.10;99.90
18690;DHT22;9782;52.930;15.562;2023-07-30T15:42:35;27.00;99.90
18690;DHT22;9782;52.930;15.562;2023-07-30T15:45:03;26.90;99.90
18690;DHT22;9782;52.930;15.562;2023-07-30T15:47:30;26.80;99.90
18690;DHT22;9782;52.930;15.562;2023-07-30T15:49:57;26.80;99.90
18690;DHT22;9782;52.930;15.562;2023-07-30T15:52:24;26.90;99.90
18690;DHT22;9782;52.930;15.562;2023-07-30T15:54:51;27.00;99.90